Mohammedia, Morocco
Current Conditions -  °F | °C
As of 5:00 PM on Sunday 25 Jan 2015 (Local Time) from GMMB Reporting Station
Clear Clear  
Wind Chill: 59°   Ceiling: Unl
Heat Index: 59°   Visibility: 6mi
Dew Point: 45°   Wind: 7mph
Humidity: 59%   Direction: 350°N
Pressure: 30.27"   Gusts: NA
Location:  33.71°N, 7.39°W
Report Text: GMMB 251600Z 35006KT 320V030 CAVOK 15/07 Q1025 NOSIG
Loading
Personal Weather Stations






























Interactive Weather Map New forecast layout! Learn more

10-Day Weather Forecast

Advertisements
Track Severe Weather on mobile